createdAt,value
2019-05-11T00:00:03.788Z,87.8
2019-05-11T00:05:07.759Z,88.9
2019-05-11T00:10:03.801Z,90.8
2019-05-11T00:15:04.006Z,92.2
2019-05-11T00:20:04.427Z,92.8
2019-05-11T00:25:03.673Z,93.2
2019-05-11T00:30:04.401Z,93.4
2019-05-11T00:35:04.022Z,95.6
2019-05-11T00:40:13.846Z,95.6
2019-05-11T00:45:03.492Z,96.7
2019-05-11T00:50:03.527Z,98.1
2019-05-11T00:55:03.955Z,98.6
2019-05-11T01:00:07.236Z,98.5
2019-05-11T01:05:03.536Z,98.6
2019-05-11T01:10:03.557Z,99.1
2019-05-11T01:15:04.107Z,98.9
2019-05-11T01:20:04.191Z,99
2019-05-11T01:25:04.784Z,99
2019-05-11T01:30:04.679Z,99.6
2019-05-11T01:35:04.131Z,97.9
2019-05-11T01:40:04.023Z,98.8
2019-05-11T01:45:03.718Z,98.2
2019-05-11T01:50:04.316Z,98.3
2019-05-11T01:55:04.486Z,98.3
2019-05-11T02:00:03.920Z,98.6
2019-05-11T02:05:03.854Z,97.8
2019-05-11T02:10:03.854Z,98.3
2019-05-11T02:15:06.249Z,97.7
2019-05-11T02:20:03.817Z,97.2
2019-05-11T02:25:03.826Z,96.2
2019-05-11T02:30:04.059Z,95.5
2019-05-11T02:35:03.924Z,96.4
2019-05-11T02:40:03.711Z,95.5
2019-05-11T02:45:03.679Z,95
2019-05-11T02:50:03.819Z,95.5
2019-05-11T02:55:04.090Z,95.2
2019-05-11T03:00:04.056Z,95.4
2019-05-11T03:05:03.691Z,95.5
2019-05-11T03:10:03.363Z,95.3
2019-05-11T03:15:03.664Z,95.4
2019-05-11T03:20:03.538Z,95.6
2019-05-11T03:25:03.353Z,96.1
2019-05-11T03:30:03.529Z,96.4
2019-05-11T03:35:03.481Z,96.8
2019-05-11T03:40:03.210Z,96.7
2019-05-11T03:45:03.190Z,97.6
2019-05-11T03:50:03.295Z,97.4
2019-05-11T03:55:03.367Z,97.3
2019-05-11T04:00:03.363Z,97.5
2019-05-11T04:05:03.511Z,99
2019-05-11T04:10:03.696Z,99.1
2019-05-11T04:15:03.979Z,99.6
2019-05-11T04:20:03.403Z,100
2019-05-11T04:25:03.422Z,100
2019-05-11T04:30:03.319Z,100
2019-05-11T04:35:03.237Z,99.9
2019-05-11T04:40:03.143Z,100
2019-05-11T04:45:03.055Z,100
2019-05-11T04:50:03.768Z,99.2
2019-05-11T04:55:03.417Z,99.9
2019-05-11T05:00:03.386Z,100
2019-05-11T05:05:03.145Z,100
2019-05-11T05:10:03.078Z,99.9
2019-05-11T05:15:03.154Z,99.2
2019-05-11T05:20:03.459Z,98.4
2019-05-11T05:25:03.551Z,98.6
2019-05-11T05:30:03.425Z,98.8
2019-05-11T05:35:03.348Z,98.2
2019-05-11T05:40:03.227Z,96.5
2019-05-11T05:45:03.152Z,96.9
2019-05-11T05:50:03.415Z,96.7
2019-05-11T05:55:03.205Z,96.3
2019-05-11T06:00:03.114Z,95.8
2019-05-11T06:05:03.225Z,95.7
2019-05-11T06:10:03.177Z,94.4
2019-05-11T06:15:03.235Z,94
2019-05-11T06:20:03.907Z,92.7
2019-05-11T06:25:03.179Z,89.8
2019-05-11T06:30:03.099Z,88.7
2019-05-11T06:35:03.207Z,88.9
2019-05-11T06:40:03.528Z,87.1
2019-05-11T06:45:03.461Z,85.7
2019-05-11T06:50:03.351Z,84.4
2019-05-11T06:55:03.088Z,83.4
2019-05-11T07:00:03.167Z,84.4
2019-05-11T07:05:02.964Z,83.7
2019-05-11T07:10:03.334Z,83.3
2019-05-11T07:15:03.335Z,84.5
2019-05-11T07:20:03.013Z,82.9
2019-05-11T07:25:03.148Z,83.1
2019-05-11T07:30:03.263Z,83.3
2019-05-11T07:35:03.114Z,79.7
2019-05-11T07:40:03.055Z,79.2
2019-05-11T07:45:02.883Z,77
2019-05-11T07:50:03.220Z,76.7
2019-05-11T07:55:03.021Z,75.6
2019-05-11T08:00:03.286Z,73.7
2019-05-11T08:05:02.830Z,74.5
2019-05-11T08:10:03.102Z,75.9
2019-05-11T08:15:08.662Z,73.2
2019-05-11T08:20:02.969Z,71.3
2019-05-11T08:25:02.985Z,71.3
2019-05-11T08:30:03.080Z,72.5
2019-05-11T08:35:02.932Z,72.4
2019-05-11T08:40:02.733Z,70.4
2019-05-11T08:45:15.933Z,69.1
2019-05-11T08:50:02.977Z,70.4
2019-05-11T08:55:03.071Z,71.1
2019-05-11T09:00:02.852Z,70.5
2019-05-11T09:05:02.964Z,70.5
2019-05-11T09:10:03.103Z,67.5
2019-05-11T09:15:03.047Z,69.2
2019-05-11T09:20:02.949Z,67.5
2019-05-11T09:25:03.016Z,66.7
2019-05-11T09:30:03.015Z,66.7
2019-05-11T09:35:02.781Z,64.1
2019-05-11T09:40:02.727Z,63
2019-05-11T09:45:02.776Z,63.6
2019-05-11T09:50:02.941Z,65.5
2019-05-11T09:55:02.750Z,65.5
2019-05-11T10:00:02.674Z,66
2019-05-11T10:05:02.922Z,66
2019-05-11T10:10:02.812Z,66.8
2019-05-11T10:15:02.721Z,66
2019-05-11T10:20:02.804Z,66.8
2019-05-11T10:25:02.912Z,64.8
2019-05-11T10:30:02.872Z,65.5
2019-05-11T10:35:02.591Z,65.5
2019-05-11T10:40:02.890Z,64.4
2019-05-11T10:45:02.487Z,65
2019-05-11T10:50:02.856Z,67.4
2019-05-11T10:55:02.567Z,67.8
2019-05-11T11:00:02.924Z,66
2019-05-11T11:05:02.970Z,65
2019-05-11T11:10:02.728Z,62.8
2019-05-11T11:15:02.886Z,62.8
2019-05-11T11:20:02.516Z,63.5
2019-05-11T11:25:02.525Z,61.4
2019-05-11T11:30:02.824Z,60.8
2019-05-11T11:35:02.858Z,59.8
2019-05-11T11:40:02.860Z,59
2019-05-11T11:45:02.642Z,58.9
2019-05-11T11:50:02.768Z,58.2
2019-05-11T11:55:02.640Z,56.6
2019-05-11T12:00:02.561Z,57.4
2019-05-11T12:05:02.748Z,55.2
2019-05-11T12:10:02.632Z,55.6
2019-05-11T12:15:02.855Z,55.7
2019-05-11T12:20:02.674Z,49.7
2019-05-11T12:25:03.195Z,48.9
2019-05-11T12:30:02.570Z,49.2
2019-05-11T12:35:02.513Z,48.6
2019-05-11T12:40:02.702Z,49.5
2019-05-11T12:45:02.444Z,50.5
2019-05-11T12:50:02.570Z,50.8
2019-05-11T12:55:02.712Z,51.2
2019-05-11T13:00:02.676Z,53.5
2019-05-11T13:05:02.357Z,51.9
2019-05-11T13:10:02.355Z,54.1
2019-05-11T13:15:02.636Z,53
2019-05-11T13:20:02.524Z,53.7
2019-05-11T13:25:02.659Z,53.8
2019-05-11T13:30:02.530Z,53.3
2019-05-11T13:35:02.392Z,53.6
2019-05-11T13:40:02.461Z,53.5
2019-05-11T13:45:02.331Z,52.4
2019-05-11T13:50:02.940Z,52.5
2019-05-11T13:55:02.401Z,51.6
2019-05-11T14:00:03.094Z,53.7
2019-05-11T14:05:03.576Z,52.5
2019-05-11T14:10:02.276Z,50.6
2019-05-11T14:15:02.620Z,52.5
2019-05-11T14:20:02.332Z,51
2019-05-11T14:25:02.608Z,49.8
2019-05-11T14:30:04.163Z,50.6
2019-05-11T14:35:02.345Z,49
2019-05-11T14:40:02.401Z,49.8
2019-05-11T14:45:02.511Z,49.7
2019-05-11T14:50:02.283Z,50
2019-05-11T14:55:02.584Z,48.9
2019-05-11T15:00:02.547Z,48.2
2019-05-11T15:05:02.393Z,45.8
2019-05-11T15:10:02.451Z,45.8
2019-05-11T15:15:02.699Z,46
2019-05-11T15:20:02.490Z,45.1
2019-05-11T15:25:02.284Z,46.1
2019-05-11T15:30:02.371Z,44.5
2019-05-11T15:35:02.723Z,44.8
2019-05-11T15:40:02.780Z,42.2
2019-05-11T15:45:02.290Z,46.3
2019-05-11T15:50:02.742Z,48.3
2019-05-11T15:55:03.299Z,48.2
2019-05-11T16:00:02.559Z,49.7
2019-05-11T16:05:02.690Z,50.6
2019-05-11T16:10:02.447Z,50.9
2019-05-11T16:15:02.361Z,51.8
2019-05-11T16:20:02.634Z,52.5
2019-05-11T16:25:04.136Z,53
2019-05-11T16:30:03.192Z,53
2019-05-11T16:35:02.387Z,54.2
2019-05-11T16:40:05.165Z,55
2019-05-11T16:45:02.672Z,54
2019-05-11T16:50:02.939Z,54.4
2019-05-11T16:55:02.222Z,53.1
2019-05-11T17:00:02.781Z,54.7
2019-05-11T17:05:02.643Z,53.7
2019-05-11T17:10:02.444Z,55
2019-05-11T17:15:02.577Z,55.8
2019-05-11T17:20:09.293Z,55.1
2019-05-11T17:25:02.500Z,55.8
2019-05-11T17:30:04.486Z,55.7
2019-05-11T17:35:02.627Z,55.4
2019-05-11T17:40:15.279Z,56.2
2019-05-11T17:45:01.998Z,55.6
2019-05-11T17:50:08.288Z,55.4
2019-05-11T17:55:02.190Z,55.6
2019-05-11T18:00:02.935Z,55.3
2019-05-11T18:05:02.571Z,55.2
2019-05-11T18:10:02.311Z,54
2019-05-11T18:15:02.192Z,54.6
2019-05-11T18:20:14.656Z,55.3
2019-05-11T18:25:03.774Z,56.2
2019-05-11T18:30:02.253Z,56.8
2019-05-11T18:35:02.700Z,57.5
2019-05-11T18:40:02.206Z,57.8
2019-05-11T18:45:02.245Z,58.3
2019-05-11T18:50:02.206Z,58.3
2019-05-11T18:55:02.171Z,58.9
2019-05-11T19:00:02.078Z,60.2
2019-05-11T19:05:02.092Z,59.9
2019-05-11T19:10:02.140Z,60.6
2019-05-11T19:15:01.910Z,60.4
2019-05-11T19:20:02.197Z,60.2
2019-05-11T19:25:02.035Z,59.5
2019-05-11T19:30:02.081Z,59.7
2019-05-11T19:35:02.077Z,59.7
2019-05-11T19:40:02.067Z,60.3
2019-05-11T19:45:01.975Z,59.8
2019-05-11T19:50:01.894Z,60.5
2019-05-11T19:55:01.875Z,60.1
2019-05-11T20:00:02.228Z,60.4
2019-05-11T20:05:01.941Z,60.8
2019-05-11T20:10:02.079Z,59.8
2019-05-11T20:15:01.939Z,60.7
2019-05-11T20:20:01.819Z,59.8
2019-05-11T20:25:01.751Z,61
2019-05-11T20:30:01.834Z,62.1
2019-05-11T20:35:01.994Z,62.7
2019-05-11T20:40:01.852Z,63.2
2019-05-11T20:45:02.003Z,63
2019-05-11T20:50:01.917Z,63.6
2019-05-11T20:55:01.996Z,64
2019-05-11T21:00:01.844Z,63.4
2019-05-11T21:05:02.012Z,63.8
2019-05-11T21:10:01.807Z,63.7
2019-05-11T21:15:02.070Z,64.3
2019-05-11T21:20:01.750Z,64.1
2019-05-11T21:25:01.825Z,63.6
2019-05-11T21:30:01.841Z,63.2
2019-05-11T21:35:02.026Z,63.9
2019-05-11T21:40:01.659Z,63.6
2019-05-11T21:45:01.817Z,62.9
2019-05-11T21:50:01.955Z,63.3
2019-05-11T21:55:01.728Z,62.7
2019-05-11T22:00:01.930Z,63.4
2019-05-11T22:05:03.299Z,63
2019-05-11T22:10:01.633Z,63.1
2019-05-11T22:15:01.728Z,64
2019-05-11T22:20:01.954Z,64.5
2019-05-11T22:25:02.690Z,64.3
2019-05-11T22:30:01.613Z,64.3
2019-05-11T22:35:01.951Z,65
2019-05-11T22:40:01.735Z,64.6
2019-05-11T22:45:01.689Z,65.2
2019-05-11T22:50:01.587Z,65.7
2019-05-11T22:55:01.669Z,66.1
2019-05-11T23:00:01.784Z,66.2
2019-05-11T23:05:01.803Z,67
2019-05-11T23:10:01.726Z,66.6
2019-05-11T23:15:01.676Z,67.2
2019-05-11T23:20:01.990Z,67.8
2019-05-11T23:25:01.657Z,66.9
2019-05-11T23:30:01.635Z,67
2019-05-11T23:35:01.663Z,67.9
2019-05-11T23:40:01.617Z,67.5
2019-05-11T23:45:01.804Z,67.8
2019-05-11T23:50:02.415Z,67.6
2019-05-11T23:55:01.687Z,67.3
